Terminal Aerodrome Forecast
Issued by NWS

Home | Current Version | Previous Version | Graphics & Text | Print | Product List | Glossary On
Versions: 1 2 3 4 5 6 7 8 9 10 11 12 13 14 15 16 17 18
000
FTUS42 KMHX 161730
TAFPGV
TAF
KPGV 161730Z 1618/1718 VRB05KT P6SM SCT035
     FM170300 VRB03KT P6SM SCT250
     FM170600 00000KT 5SM BR SCT250
     FM170900 00000KT 3SM BR BKN003
     FM171300 VRB03KT P6SM SCT003 BKN035
      AMD LTD TO CLD VIS AND WIND=

USA.gov is the U.S. government's official web portal to all federal, state and local government web resources and services.